createdAt,value
2023-01-03T00:07:31.368Z,100
2023-01-03T00:13:23.883Z,100
2023-01-03T00:19:14.099Z,100
2023-01-03T00:25:03.815Z,99.3
2023-01-03T00:30:54.724Z,99
2023-01-03T00:36:49.195Z,98.9
2023-01-03T00:42:46.501Z,100
2023-01-03T00:48:43.576Z,100
2023-01-03T00:54:37.815Z,100
2023-01-03T01:00:29.820Z,100
2023-01-03T01:06:33.693Z,100
2023-01-03T01:12:25.523Z,100
2023-01-03T01:18:14.614Z,100
2023-01-03T01:24:06.960Z,100
2023-01-03T01:30:04.759Z,100
2023-01-03T01:35:54.582Z,100
2023-01-03T01:41:44.930Z,100
2023-01-03T01:47:35.227Z,100
2023-01-03T01:53:29.307Z,100
2023-01-03T01:59:22.427Z,100
2023-01-03T02:05:19.791Z,100
2023-01-03T02:11:13.182Z,98.9
2023-01-03T02:17:07.891Z,98.6
2023-01-03T02:22:58.005Z,97.9
2023-01-03T02:28:47.750Z,96.6
2023-01-03T02:34:42.628Z,96.6
2023-01-03T02:40:31.904Z,94
2023-01-03T02:46:27.804Z,93.1
2023-01-03T02:52:16.804Z,93.3
2023-01-03T02:58:07.932Z,93.3
2023-01-03T03:04:00.004Z,93.7
2023-01-03T03:09:56.577Z,92.8
2023-01-03T03:15:48.513Z,93.5
2023-01-03T03:21:38.704Z,94
2023-01-03T03:27:28.480Z,94.1
2023-01-03T03:33:18.957Z,93.9
2023-01-03T03:39:09.175Z,93.5
2023-01-03T03:45:03.026Z,94.6
2023-01-03T03:50:52.770Z,92.2
2023-01-03T03:56:44.368Z,90.4
2023-01-03T04:02:34.634Z,92.5
2023-01-03T04:08:37.073Z,94.9
2023-01-03T04:14:25.873Z,95.6
2023-01-03T04:20:16.310Z,95.6
2023-01-03T04:26:06.529Z,97.2
2023-01-03T04:32:02.929Z,97.2
2023-01-03T04:37:52.536Z,97.9
2023-01-03T04:43:45.795Z,96.3
2023-01-03T04:49:45.244Z,93.5
2023-01-03T04:55:34.686Z,94.1
2023-01-03T05:01:32.291Z,92.5
2023-01-03T05:07:30.058Z,95.2
2023-01-03T05:13:29.290Z,96.3
2023-01-03T05:19:18.085Z,100
2023-01-03T05:25:09.669Z,95.4
2023-01-03T05:31:00.762Z,95.2
2023-01-03T05:36:51.426Z,94.7
2023-01-03T05:42:42.045Z,94.2
2023-01-03T05:48:33.424Z,93.4
2023-01-03T05:54:23.837Z,92.3
2023-01-03T06:00:15.280Z,92.7
2023-01-03T06:06:05.858Z,93.3
2023-01-03T06:11:56.242Z,93.5
2023-01-03T06:17:47.175Z,94.1
2023-01-03T06:23:40.172Z,93.1
2023-01-03T06:29:31.925Z,93
2023-01-03T06:35:22.897Z,93.3
2023-01-03T06:41:13.889Z,92.4
2023-01-03T06:47:05.841Z,93.7
2023-01-03T06:52:56.152Z,94.3
2023-01-03T06:58:46.803Z,94.2
2023-01-03T07:04:38.433Z,94.8
2023-01-03T07:10:29.481Z,96.3
2023-01-03T07:16:21.955Z,95.7
2023-01-03T07:22:13.369Z,95.7
2023-01-03T07:28:11.025Z,95.8
2023-01-03T07:34:02.069Z,95.4
2023-01-03T07:39:54.525Z,94.8
2023-01-03T07:45:44.886Z,96.8
2023-01-03T07:51:36.214Z,96.7
2023-01-03T07:57:26.564Z,97.4
2023-01-03T08:03:16.796Z,95.9
2023-01-03T08:09:10.109Z,96.7
2023-01-03T08:15:01.021Z,97.3
2023-01-03T08:20:52.254Z,97
2023-01-03T08:26:42.932Z,97.3
2023-01-03T08:32:33.783Z,97.3
2023-01-03T08:38:22.703Z,97.6
2023-01-03T09:24:11.740Z,95.8
2023-01-03T09:30:01.708Z,95.9
2023-01-03T09:35:52.539Z,95.7
2023-01-03T09:41:46.519Z,95.5
2023-01-03T09:47:36.042Z,95.7
2023-01-03T09:53:26.438Z,95.8
2023-01-03T09:59:17.632Z,95.9
2023-01-03T10:05:08.124Z,95.4
2023-01-03T10:10:59.412Z,95.1
2023-01-03T10:16:49.608Z,94.9
2023-01-03T10:22:40.425Z,94.6
2023-01-03T10:28:31.668Z,94
2023-01-03T10:34:23.597Z,94.1
2023-01-03T10:40:13.493Z,94.1
2023-01-03T10:46:03.150Z,94.5
2023-01-03T10:51:52.971Z,94.4
2023-01-03T10:57:43.517Z,94
2023-01-03T11:03:34.939Z,93.4
2023-01-03T11:09:24.950Z,92.7
2023-01-03T11:15:15.658Z,92
2023-01-03T11:21:05.720Z,91.6
2023-01-03T11:26:56.003Z,91.9
2023-01-03T11:32:46.614Z,91.8
2023-01-03T11:38:36.834Z,91.6
2023-01-03T11:44:28.085Z,91.5
2023-01-03T11:50:19.398Z,92.4
2023-01-03T11:56:11.630Z,88.6
2023-01-03T12:02:03.410Z,83.8
2023-01-03T12:07:55.034Z,82.6
2023-01-03T12:13:46.426Z,83.2
2023-01-03T12:19:36.585Z,82.1
2023-01-03T12:25:27.966Z,82.2
2023-01-03T12:31:18.959Z,80.9
2023-01-03T12:37:20.135Z,80.7
2023-01-03T12:43:11.721Z,79
2023-01-03T12:49:03.230Z,79.5
2023-01-03T12:54:53.117Z,80.4
2023-01-03T13:00:41.800Z,80
2023-01-03T13:06:32.498Z,79.1
2023-01-03T13:12:22.940Z,78.3
2023-01-03T13:18:13.023Z,77.6
2023-01-03T13:24:03.911Z,77
2023-01-03T13:29:54.750Z,76.9
2023-01-03T13:35:46.205Z,76.5
2023-01-03T13:41:38.049Z,76.6
2023-01-03T13:47:31.066Z,76.4
2023-01-03T13:53:19.770Z,76.9
2023-01-03T13:59:14.257Z,76.6
2023-01-03T14:05:04.947Z,76.5
2023-01-03T14:10:56.297Z,76.8
2023-01-03T14:16:47.140Z,75.9
2023-01-03T14:22:38.190Z,75.6
2023-01-03T14:28:29.237Z,76.4
2023-01-03T14:34:19.144Z,76.9
2023-01-03T14:40:10.109Z,77.1
2023-01-03T14:46:00.395Z,77.6
2023-01-03T14:51:51.478Z,77.7
2023-01-03T14:57:41.459Z,75.5
2023-01-03T15:03:32.115Z,73.5
2023-01-03T15:09:22.924Z,72.2
2023-01-03T15:15:14.733Z,72.4
2023-01-03T15:21:06.030Z,73.2
2023-01-03T15:26:56.488Z,74.2
2023-01-03T15:32:47.496Z,74.5
2023-01-03T15:38:39.499Z,77.1
2023-01-03T15:44:33.209Z,76.9
2023-01-03T15:50:23.886Z,78.4
2023-01-03T15:56:16.053Z,79.6
2023-01-03T16:02:06.315Z,80.7
2023-01-03T16:07:58.371Z,81.1
2023-01-03T16:13:49.195Z,82.3
2023-01-03T16:19:40.142Z,82.1
2023-01-03T16:25:31.041Z,82.4
2023-01-03T16:31:21.771Z,83.4
2023-01-03T16:37:13.702Z,83.7
2023-01-03T16:43:05.365Z,83.9
2023-01-03T16:48:55.724Z,83.5
2023-01-03T16:54:46.990Z,84.2
2023-01-03T17:00:35.903Z,85
2023-01-03T17:06:25.591Z,84.6
2023-01-03T17:12:25.114Z,84.5
2023-01-03T17:18:16.610Z,82.4
2023-01-03T17:24:08.912Z,82.4
2023-01-03T17:29:59.008Z,82.5
2023-01-03T17:35:50.593Z,81.7
2023-01-03T17:41:41.109Z,81.4
2023-01-03T17:47:31.292Z,81.5
2023-01-03T17:53:21.193Z,82.3
2023-01-03T17:59:11.960Z,82.2
2023-01-03T18:05:31.303Z,82.2
2023-01-03T18:11:19.311Z,82.3
2023-01-03T18:17:10.017Z,82.4
2023-01-03T18:23:00.544Z,82
2023-01-03T18:28:52.455Z,81.8
2023-01-03T18:34:43.551Z,81.8
2023-01-03T18:46:53.745Z,82.3
2023-01-03T18:52:43.212Z,83.3
2023-01-03T18:58:34.680Z,83.9
2023-01-03T19:04:26.413Z,84.1
2023-01-03T19:10:18.076Z,84.5
2023-01-03T19:16:09.747Z,85.1
2023-01-03T19:22:07.122Z,85.9
2023-01-03T19:28:12.561Z,87.1
2023-01-03T19:34:03.005Z,87.8
2023-01-03T19:39:53.235Z,88.1
2023-01-03T19:45:44.658Z,88.7
2023-01-03T19:51:35.554Z,88.6
2023-01-03T19:57:24.772Z,89
2023-01-03T20:03:15.026Z,89.2
2023-01-03T20:09:05.542Z,89.1
2023-01-03T20:14:57.780Z,90.3
2023-01-03T20:20:55.349Z,90.3
2023-01-03T20:26:47.743Z,91.2
2023-01-03T20:32:39.187Z,90.3
2023-01-03T20:38:30.446Z,90.7
2023-01-03T20:44:22.310Z,90.3
2023-01-03T20:50:12.234Z,90.6
2023-01-03T20:56:02.818Z,90.5
2023-01-03T21:01:55.164Z,90.8
2023-01-03T21:07:47.173Z,90.7
2023-01-03T21:13:38.332Z,91
2023-01-03T21:19:29.125Z,91.3
2023-01-03T21:25:19.081Z,91.6
2023-01-03T21:31:08.409Z,91.7
2023-01-03T21:36:57.820Z,92.5
2023-01-03T21:42:47.441Z,92.7
2023-01-03T21:48:41.770Z,92.7
2023-01-03T21:54:34.789Z,92.7
2023-01-03T22:00:25.401Z,92.4
2023-01-03T22:06:18.567Z,92.5
2023-01-03T22:12:08.279Z,92.8
2023-01-03T22:18:02.956Z,92.3
2023-01-03T22:23:54.028Z,92.3
2023-01-03T22:29:45.800Z,91.3
2023-01-03T22:35:35.916Z,91.3
2023-01-03T22:41:26.169Z,91.4
2023-01-03T22:47:15.785Z,89.9
2023-01-03T22:53:05.851Z,91
2023-01-03T22:58:56.178Z,91.2
2023-01-03T23:04:46.149Z,90.5
2023-01-03T23:10:37.080Z,90.9
2023-01-03T23:16:29.030Z,90.6
2023-01-03T23:22:20.435Z,90.6
2023-01-03T23:28:10.979Z,90.4
2023-01-03T23:34:01.252Z,90.5
2023-01-03T23:39:52.857Z,90.6
2023-01-03T23:45:43.778Z,91
2023-01-03T23:51:34.483Z,89.4
2023-01-03T23:57:25.144Z,89.4
